Baltic Frost — 9HA2868 — position and weather

sailwx.info

Track history (hours):
 
Tides and Currents Weather Stations Pressure Air Temp Water Temp Dewpoint Dewpoint Depression Visibility Wind Speed Wind Dir Waves Ship Positions

Baltic Frost

Last reported at 2016-Aug-27 23:23 UTC. Time now 2016-Aug-28 00:31 UTC.
Position N 57°13' E 008°20'.

Length 182 m; draft 7 m.

Type: Ship. MMSI: 256495000.

Date/timePositionNaut miles runAvg speedWind from/ knotsBaromVisibWave heightAir tempDewpointWater temp
2016-Aug-27 23:23N 57°13' E 008°20'7 9.0
2016-Aug-27 22:33N 57°07' E 008°11'9 9.0
2016-Aug-27 21:33N 57°00' E 008°01'9 8.8
2016-Aug-27 20:32N 56°53' E 007°51'9 8.7
2016-Aug-27 19:33N 56°46' E 007°42'173 9.0
2016-Aug-27 00:18N 54°36' E 004°21'9 9.5
2016-Aug-26 23:23N 54°33' E 004°07'8 9.4
2016-Aug-26 22:33N 54°29' E 003°55'9 9.2
2016-Aug-26 21:33N 54°26' E 003°40'9 9.0
2016-Aug-26 20:33N 54°22' E 003°26'9 9.0
2016-Aug-26 19:33N 54°19' E 003°12'9 9.0
2016-Aug-26 18:33N 54°15' E 002°58'9 9.1
2016-Aug-26 17:33N 54°11' E 002°44'9 9.0
2016-Aug-26 16:33N 54°08' E 002°30'9 9.1
2016-Aug-26 15:33N 54°04' E 002°16'31 9.5
2016-Aug-26 12:20N 53°55' E 001°26'19 9.3
2016-Aug-26 10:14N 53°47' E 000°55'9 8.3
2016-Aug-26 09:09N 53°40' E 000°46'5 8.7
2016-Aug-26 08:33N 53°37' E 000°38'9 8.7
2016-Aug-26 07:33N 53°33' E 000°26'8 8.1
2016-Aug-26 06:34N 53°33' E 000°12'14 6.9
2016-Aug-26 04:32N 53°38' W 000°09'0 0.0
2016-Aug-26 03:32N 53°38' W 000°09'0 0.0
2016-Aug-26 02:31N 53°38' W 000°09'0 0.0
2016-Aug-26 01:31N 53°38' W 000°09'0 0.0
2016-Aug-26 00:33N 53°38' W 000°09'0 0.0
2016-Aug-25 23:33N 53°38' W 000°09'0 0.0
2016-Aug-25 22:33N 53°38' W 000°09'0 0.0
2016-Aug-25 21:32N 53°38' W 000°09'0 0.0
2016-Aug-25 20:32N 53°38' W 000°09'0 0.0
2016-Aug-25 19:28N 53°38' W 000°09'0 0.0
2016-Aug-25 18:31N 53°38' W 000°09'0 0.0
2016-Aug-25 17:33N 53°38' W 000°09'0 0.0
2016-Aug-25 16:33N 53°38' W 000°09'0 0.0
2016-Aug-25 15:33N 53°38' W 000°09'0 0.0
2016-Aug-25 14:32N 53°38' W 000°09'0 0.0
2016-Aug-25 13:32N 53°38' W 000°09'0 0.0
2016-Aug-25 12:31N 53°38' W 000°09'0 0.0
2016-Aug-25 11:31N 53°38' W 000°09'0 0.0
2016-Aug-25 10:33N 53°38' W 000°09'0 0.0
2016-Aug-25 09:33N 53°38' W 000°09'0 0.0
2016-Aug-25 08:32N 53°38' W 000°09'0 0.0
2016-Aug-25 07:32N 53°38' W 000°09'0 0.0
2016-Aug-25 06:31N 53°38' W 000°09'0 0.0
2016-Aug-25 04:31N 53°38' W 000°09'0 0.0
2016-Aug-25 03:33N 53°38' W 000°09'0 0.0
2016-Aug-25 02:33N 53°38' W 000°09'0 0.0
2016-Aug-25 01:32N 53°38' W 000°09'0 0.0
2016-Aug-25 00:32N 53°38' W 000°09'0 0.0
2016-Aug-24 23:31N 53°38' W 000°09'0 0.0
2016-Aug-24 22:31N 53°38' W 000°09'0 0.0
2016-Aug-24 21:31N 53°38' W 000°09'0 0.0
2016-Aug-24 20:33N 53°38' W 000°09'0 0.0
2016-Aug-24 19:33N 53°38' W 000°09'0 0.0
2016-Aug-24 18:32N 53°38' W 000°09'0 0.0
2016-Aug-24 17:32N 53°38' W 000°09'0 0.0
2016-Aug-24 16:31N 53°38' W 000°09'0 0.0
2016-Aug-24 15:31N 53°38' W 000°09'0 0.0
2016-Aug-24 14:31N 53°38' W 000°09'0 0.0
2016-Aug-24 13:33N 53°38' W 000°09'0 0.0
2016-Aug-24 12:33N 53°38' W 000°09'0 0.0
2016-Aug-24 11:32N 53°38' W 000°09'0 0.0
2016-Aug-24 10:34N 53°38' W 000°09'2 1.6
2016-Aug-24 09:34N 53°37' W 000°07'8 7.7
2016-Aug-24 08:33N 53°35' E 000°05'8 8.1
2016-Aug-24 07:33N 53°36' E 000°19'5 4.8
2016-Aug-24 06:33N 53°40' E 000°23'4 2.0
2016-Aug-24 04:30N 53°44' E 000°23'0 0.0
2016-Aug-24 03:21N 53°44' E 000°23'0 0.0
2016-Aug-24 02:32N 53°44' E 000°23'0 0.0
2016-Aug-24 01:26N 53°44' E 000°24'0 0.0
2016-Aug-24 00:28N 53°44' E 000°24'0 0.0
2016-Aug-23 23:25N 53°44' E 000°23'0 0.1
2016-Aug-23 22:30N 53°44' E 000°23'0 0.1
2016-Aug-23 21:27N 53°44' E 000°24'0 0.0
2016-Aug-23 20:33N 53°44' E 000°24'0 0.0
2016-Aug-23 19:32N 53°44' E 000°24'0 0.0
2016-Aug-23 18:32N 53°44' E 000°24'0 0.0
2016-Aug-23 17:28N 53°44' E 000°24'0 0.2
2016-Aug-23 16:25N 53°44' E 000°23'0 0.1
2016-Aug-23 15:33N 53°44' E 000°23'0 0.0
2016-Aug-23 14:27N 53°44' E 000°24'0 0.0
2016-Aug-23 13:26N 53°44' E 000°24'0 0.0
2016-Aug-23 12:26N 53°44' E 000°24'0 0.1
2016-Aug-23 11:23N 53°44' E 000°23'0 0.0
2016-Aug-23 10:31N 53°44' E 000°23'0 0.2
2016-Aug-23 09:28N 53°44' E 000°24'0 0.1
2016-Aug-23 08:30N 53°44' E 000°24'0 0.0
2016-Aug-23 07:30N 53°44' E 000°24'0 0.0
2016-Aug-23 06:17N 53°44' E 000°23'0 0.0
2016-Aug-23 04:23N 53°44' E 000°23'0 0.2
2016-Aug-23 03:16N 53°44' E 000°23'0 0.0
2016-Aug-23 02:25N 53°44' E 000°23'0 0.0
2016-Aug-23 01:27N 53°44' E 000°23'0 0.0
2016-Aug-23 00:27N 53°44' E 000°23'0 0.0
2016-Aug-22 23:33N 53°44' E 000°23'0 0.1
2016-Aug-22 22:26N 53°44' E 000°23'0 0.2
2016-Aug-22 21:07N 53°44' E 000°23'0 0.0
2016-Aug-22 20:28N 53°44' E 000°23'0 0.0
2016-Aug-22 19:25N 53°44' E 000°23'0 0.0
2016-Aug-22 18:33N 53°44' E 000°23'0 0.0
2016-Aug-22 17:27N 53°44' E 000°23'0 0.0
2016-Aug-22 16:20N 53°44' E 000°23'0 0.3
2016-Aug-22 15:29N 53°44' E 000°23'0 0.0
2016-Aug-22 12:25N 53°44' E 000°23'0 0.0
2016-Aug-22 11:33N 53°44' E 000°23'0 0.1
2016-Aug-22 10:24N 53°44' E 000°23'0 0.1
2016-Aug-22 09:20N 53°44' E 000°24'0 0.2
2016-Aug-22 08:23N 53°44' E 000°23'0 0.0
2016-Aug-22 07:04N 53°44' E 000°23'0 0.0
2016-Aug-22 06:28N 53°44' E 000°23'0 0.0
2016-Aug-22 05:25N 53°44' E 000°23'0 0.0
2016-Aug-22 04:27N 53°44' E 000°23'0 0.2
2016-Aug-22 03:24N 53°44' E 000°24'0 0.2
2016-Aug-22 02:29N 53°44' E 000°23'0 0.0
2016-Aug-22 01:29N 53°44' E 000°23'0 0.0
2016-Aug-22 00:19N 53°44' E 000°23'0 0.0
2016-Aug-21 23:10N 53°44' E 000°23'0 0.0
2016-Aug-21 22:25N 53°44' E 000°23'0 0.2
2016-Aug-21 21:33N 53°44' E 000°24'0 0.1
2016-Aug-21 20:24N 53°44' E 000°23'0 0.0
2016-Aug-21 19:32N 53°44' E 000°23'0 0.0
2016-Aug-21 18:29N 53°44' E 000°23'0 0.0
2016-Aug-21 17:19N 53°44' E 000°23'0 0.0
2016-Aug-21 16:28N 53°44' E 000°23'0 0.1
2016-Aug-21 15:06N 53°44' E 000°24'0 0.3
2016-Aug-21 14:33N 53°44' E 000°23'0 0.1
2016-Aug-21 13:24N 53°44' E 000°23'0 0.0
2016-Aug-21 12:32N 53°44' E 000°23'0 0.0
2016-Aug-21 11:26N 53°44' E 000°23'0 0.0
2016-Aug-21 10:31N 53°44' E 000°23'0 0.1
2016-Aug-21 09:28N 53°44' E 000°23'0 0.1
2016-Aug-21 07:27N 53°44' E 000°23'0 0.0
2016-Aug-21 05:32N 53°44' E 000°23'0 0.0
2016-Aug-21 04:29N 53°44' E 000°23'0 0.0
2016-Aug-21 03:31N 53°44' E 000°23'0 0.2
2016-Aug-21 02:13N 53°44' E 000°23'0 0.1
2016-Aug-21 01:34N 53°44' E 000°23'0 0.0
2016-Aug-21 00:12N 53°44' E 000°23'0 0.0
2016-Aug-20 23:24N 53°44' E 000°23'0 0.0
2016-Aug-20 22:29N 53°44' E 000°23'0 0.0
2016-Aug-20 21:23N 53°44' E 000°23'0 0.0
2016-Aug-20 20:31N 53°44' E 000°23'0 0.3
2016-Aug-20 19:28N 53°44' E 000°23'0 0.0
2016-Aug-20 17:24N 53°44' E 000°23'0 0.0
2016-Aug-20 16:24N 53°44' E 000°23'0 0.0
2016-Aug-20 15:32N 53°44' E 000°23'0 0.2
2016-Aug-20 14:08N 53°44' E 000°23'0 0.0
2016-Aug-20 13:31N 53°44' E 000°23'0 0.0
2016-Aug-20 12:25N 53°44' E 000°23'0 0.0
2016-Aug-20 11:31N 53°44' E 000°23'0 0.0
2016-Aug-20 10:24N 53°44' E 000°23'0 0.0
2016-Aug-20 09:18N 53°44' E 000°23'0 0.0
2016-Aug-20 08:32N 53°44' E 000°23'0 0.1
2016-Aug-20 06:28N 53°44' E 000°23'0 0.0
2016-Aug-20 05:25N 53°44' E 000°23'0 0.0
2016-Aug-20 04:33N 53°44' E 000°23'0 0.0
2016-Aug-20 03:30N 53°44' E 000°23'0 0.2
2016-Aug-20 01:29N 53°44' E 000°23'0 0.0
2016-Aug-20 00:08N 53°44' E 000°23'0 0.0
2016-Aug-19 23:28N 53°44' E 000°23'0 0.1
2016-Aug-19 22:28N 53°44' E 000°24'0 0.0
2016-Aug-19 21:33N 53°44' E 000°24'0 0.0
2016-Aug-19 20:24N 53°44' E 000°24'0 0.2
2016-Aug-19 19:17N 53°44' E 000°24'0 0.0
2016-Aug-19 18:32N 53°44' E 000°24'0 0.0
2016-Aug-19 17:20N 53°44' E 000°24'0 0.0
2016-Aug-19 16:16N 53°44' E 000°24'0 0.0
2016-Aug-19 14:30N 53°44' E 000°24'0 0.2
2016-Aug-19 13:27N 53°44' E 000°23'0 0.1
2016-Aug-19 12:33N 53°44' E 000°23'0 0.0
2016-Aug-19 11:26N 53°44' E 000°24'0 0.0
2016-Aug-19 10:17N 53°44' E 000°24'0 0.0
2016-Aug-19 09:31N 53°44' E 000°24'0 0.0
2016-Aug-19 08:25N 53°44' E 000°24'0 0.2
2016-Aug-19 07:33N 53°44' E 000°23'0 0.2
2016-Aug-19 06:27N 53°44' E 000°24'0 0.0
2016-Aug-19 04:29N 53°44' E 000°24'0 0.0
2016-Aug-19 02:22N 53°44' E 000°24'0 0.1
2016-Aug-19 01:25N 53°44' E 000°23'0 0.2
2016-Aug-19 00:33N 53°44' E 000°23'0 0.0
2016-Aug-18 23:27N 53°44' E 000°24'0 0.0
2016-Aug-18 21:14N 53°44' E 000°24'0 0.0
2016-Aug-18 20:17N 53°44' E 000°24'0 0.1
2016-Aug-18 18:25N 53°44' E 000°24'0 0.0
2016-Aug-18 16:15N 53°44' E 000°24'0 0.0
2016-Aug-18 13:20N 53°44' E 000°23'0 0.2
2016-Aug-18 12:31N 53°44' E 000°23'0 0.1
2016-Aug-18 11:19N 53°44' E 000°24'0 0.0
2016-Aug-18 10:30N 53°44' E 000°24'0 0.0
2016-Aug-18 09:24N 53°44' E 000°24'0 0.0
2016-Aug-18 08:17N 53°44' E 000°24'0 0.0
2016-Aug-18 07:29N 53°44' E 000°24'0 0.1
2016-Aug-18 06:16N 53°44' E 000°24'0 0.0
2016-Aug-18 04:13N 53°44' E 000°24'0 0.0
2016-Aug-18 03:12N 53°44' E 000°24'0 0.0
2016-Aug-18 02:33N 53°44' E 000°24'0 0.0
2016-Aug-18 01:29N 53°44' E 000°24'0 0.2
2016-Aug-18 00:32N 53°44' E 000°23'0 0.1
2016-Aug-17 23:32N 53°44' E 000°23'  
Track history (hours):
 
Tides and Currents Weather Stations Pressure Air Temp Water Temp Dewpoint Dewpoint Depression Visibility Wind Speed Wind Dir Waves Ship Positions

Baltic Frost

Last reported at 2016-Aug-27 23:23 UTC. Time now 2016-Aug-28 00:31 UTC.
Position N 57°13' E 008°20'.

Length 182 m; draft 7 m.

Type: Ship. MMSI: 256495000.

Date/timePositionNaut miles runAvg speedWind from/ knotsBaromVisibWave heightAir tempDewpointWater temp
2016-Aug-27 23:23N 57°13' E 008°20'7 9.0
2016-Aug-27 22:33N 57°07' E 008°11'9 9.0
2016-Aug-27 21:33N 57°00' E 008°01'9 8.8
2016-Aug-27 20:32N 56°53' E 007°51'9 8.7
2016-Aug-27 19:33N 56°46' E 007°42'173 9.0
2016-Aug-27 00:18N 54°36' E 004°21'9 9.5
2016-Aug-26 23:23N 54°33' E 004°07'8 9.4
2016-Aug-26 22:33N 54°29' E 003°55'9 9.2
2016-Aug-26 21:33N 54°26' E 003°40'9 9.0
2016-Aug-26 20:33N 54°22' E 003°26'9 9.0
2016-Aug-26 19:33N 54°19' E 003°12'9 9.0
2016-Aug-26 18:33N 54°15' E 002°58'9 9.1
2016-Aug-26 17:33N 54°11' E 002°44'9 9.0
2016-Aug-26 16:33N 54°08' E 002°30'9 9.1
2016-Aug-26 15:33N 54°04' E 002°16'31 9.5
2016-Aug-26 12:20N 53°55' E 001°26'19 9.3
2016-Aug-26 10:14N 53°47' E 000°55'9 8.3
2016-Aug-26 09:09N 53°40' E 000°46'5 8.7
2016-Aug-26 08:33N 53°37' E 000°38'9 8.7
2016-Aug-26 07:33N 53°33' E 000°26'8 8.1
2016-Aug-26 06:34N 53°33' E 000°12'14 6.9
2016-Aug-26 04:32N 53°38' W 000°09'0 0.0
2016-Aug-26 03:32N 53°38' W 000°09'0 0.0
2016-Aug-26 02:31N 53°38' W 000°09'0 0.0
2016-Aug-26 01:31N 53°38' W 000°09'0 0.0
2016-Aug-26 00:33N 53°38' W 000°09'0 0.0
2016-Aug-25 23:33N 53°38' W 000°09'0 0.0
2016-Aug-25 22:33N 53°38' W 000°09'0 0.0
2016-Aug-25 21:32N 53°38' W 000°09'0 0.0
2016-Aug-25 20:32N 53°38' W 000°09'0 0.0
2016-Aug-25 19:28N 53°38' W 000°09'0 0.0
2016-Aug-25 18:31N 53°38' W 000°09'0 0.0
2016-Aug-25 17:33N 53°38' W 000°09'0 0.0
2016-Aug-25 16:33N 53°38' W 000°09'0 0.0
2016-Aug-25 15:33N 53°38' W 000°09'0 0.0
2016-Aug-25 14:32N 53°38' W 000°09'0 0.0
2016-Aug-25 13:32N 53°38' W 000°09'0 0.0
2016-Aug-25 12:31N 53°38' W 000°09'0 0.0
2016-Aug-25 11:31N 53°38' W 000°09'0 0.0
2016-Aug-25 10:33N 53°38' W 000°09'0 0.0
2016-Aug-25 09:33N 53°38' W 000°09'0 0.0
2016-Aug-25 08:32N 53°38' W 000°09'0 0.0
2016-Aug-25 07:32N 53°38' W 000°09'0 0.0
2016-Aug-25 06:31N 53°38' W 000°09'0 0.0
2016-Aug-25 04:31N 53°38' W 000°09'0 0.0
2016-Aug-25 03:33N 53°38' W 000°09'0 0.0
2016-Aug-25 02:33N 53°38' W 000°09'0 0.0
2016-Aug-25 01:32N 53°38' W 000°09'0 0.0
2016-Aug-25 00:32N 53°38' W 000°09'0 0.0
2016-Aug-24 23:31N 53°38' W 000°09'0 0.0
2016-Aug-24 22:31N 53°38' W 000°09'0 0.0
2016-Aug-24 21:31N 53°38' W 000°09'0 0.0
2016-Aug-24 20:33N 53°38' W 000°09'0 0.0
2016-Aug-24 19:33N 53°38' W 000°09'0 0.0
2016-Aug-24 18:32N 53°38' W 000°09'0 0.0
2016-Aug-24 17:32N 53°38' W 000°09'0 0.0
2016-Aug-24 16:31N 53°38' W 000°09'0 0.0
2016-Aug-24 15:31N 53°38' W 000°09'0 0.0
2016-Aug-24 14:31N 53°38' W 000°09'0 0.0
2016-Aug-24 13:33N 53°38' W 000°09'0 0.0
2016-Aug-24 12:33N 53°38' W 000°09'0 0.0
2016-Aug-24 11:32N 53°38' W 000°09'0 0.0
2016-Aug-24 10:34N 53°38' W 000°09'2 1.6
2016-Aug-24 09:34N 53°37' W 000°07'8 7.7
2016-Aug-24 08:33N 53°35' E 000°05'8 8.1
2016-Aug-24 07:33N 53°36' E 000°19'5 4.8
2016-Aug-24 06:33N 53°40' E 000°23'4 2.0
2016-Aug-24 04:30N 53°44' E 000°23'0 0.0
2016-Aug-24 03:21N 53°44' E 000°23'0 0.0
2016-Aug-24 02:32N 53°44' E 000°23'0 0.0
2016-Aug-24 01:26N 53°44' E 000°24'0 0.0
2016-Aug-24 00:28N 53°44' E 000°24'0 0.0
2016-Aug-23 23:25N 53°44' E 000°23'0 0.1
2016-Aug-23 22:30N 53°44' E 000°23'0 0.1
2016-Aug-23 21:27N 53°44' E 000°24'0 0.0
2016-Aug-23 20:33N 53°44' E 000°24'0 0.0
2016-Aug-23 19:32N 53°44' E 000°24'0 0.0
2016-Aug-23 18:32N 53°44' E 000°24'0 0.0
2016-Aug-23 17:28N 53°44' E 000°24'0 0.2
2016-Aug-23 16:25N 53°44' E 000°23'0 0.1
2016-Aug-23 15:33N 53°44' E 000°23'0 0.0
2016-Aug-23 14:27N 53°44' E 000°24'0 0.0
2016-Aug-23 13:26N 53°44' E 000°24'0 0.0
2016-Aug-23 12:26N 53°44' E 000°24'0 0.1
2016-Aug-23 11:23N 53°44' E 000°23'0 0.0
2016-Aug-23 10:31N 53°44' E 000°23'0 0.2
2016-Aug-23 09:28N 53°44' E 000°24'0 0.1
2016-Aug-23 08:30N 53°44' E 000°24'0 0.0
2016-Aug-23 07:30N 53°44' E 000°24'0 0.0
2016-Aug-23 06:17N 53°44' E 000°23'0 0.0
2016-Aug-23 04:23N 53°44' E 000°23'0 0.2
2016-Aug-23 03:16N 53°44' E 000°23'0 0.0
2016-Aug-23 02:25N 53°44' E 000°23'0 0.0
2016-Aug-23 01:27N 53°44' E 000°23'0 0.0
2016-Aug-23 00:27N 53°44' E 000°23'0 0.0
2016-Aug-22 23:33N 53°44' E 000°23'0 0.1
2016-Aug-22 22:26N 53°44' E 000°23'0 0.2
2016-Aug-22 21:07N 53°44' E 000°23'0 0.0
2016-Aug-22 20:28N 53°44' E 000°23'0 0.0
2016-Aug-22 19:25N 53°44' E 000°23'0 0.0
2016-Aug-22 18:33N 53°44' E 000°23'0 0.0
2016-Aug-22 17:27N 53°44' E 000°23'0 0.0
2016-Aug-22 16:20N 53°44' E 000°23'0 0.3
2016-Aug-22 15:29N 53°44' E 000°23'0 0.0
2016-Aug-22 12:25N 53°44' E 000°23'0 0.0
2016-Aug-22 11:33N 53°44' E 000°23'0 0.1
2016-Aug-22 10:24N 53°44' E 000°23'0 0.1
2016-Aug-22 09:20N 53°44' E 000°24'0 0.2
2016-Aug-22 08:23N 53°44' E 000°23'0 0.0
2016-Aug-22 07:04N 53°44' E 000°23'0 0.0
2016-Aug-22 06:28N 53°44' E 000°23'0 0.0
2016-Aug-22 05:25N 53°44' E 000°23'0 0.0
2016-Aug-22 04:27N 53°44' E 000°23'0 0.2
2016-Aug-22 03:24N 53°44' E 000°24'0 0.2
2016-Aug-22 02:29N 53°44' E 000°23'0 0.0
2016-Aug-22 01:29N 53°44' E 000°23'0 0.0
2016-Aug-22 00:19N 53°44' E 000°23'0 0.0
2016-Aug-21 23:10N 53°44' E 000°23'0 0.0
2016-Aug-21 22:25N 53°44' E 000°23'0 0.2
2016-Aug-21 21:33N 53°44' E 000°24'0 0.1
2016-Aug-21 20:24N 53°44' E 000°23'0 0.0
2016-Aug-21 19:32N 53°44' E 000°23'0 0.0
2016-Aug-21 18:29N 53°44' E 000°23'0 0.0
2016-Aug-21 17:19N 53°44' E 000°23'0 0.0
2016-Aug-21 16:28N 53°44' E 000°23'0 0.1
2016-Aug-21 15:06N 53°44' E 000°24'0 0.3
2016-Aug-21 14:33N 53°44' E 000°23'0 0.1
2016-Aug-21 13:24N 53°44' E 000°23'0 0.0
2016-Aug-21 12:32N 53°44' E 000°23'0 0.0
2016-Aug-21 11:26N 53°44' E 000°23'0 0.0
2016-Aug-21 10:31N 53°44' E 000°23'0 0.1
2016-Aug-21 09:28N 53°44' E 000°23'0 0.1
2016-Aug-21 07:27N 53°44' E 000°23'0 0.0
2016-Aug-21 05:32N 53°44' E 000°23'0 0.0
2016-Aug-21 04:29N 53°44' E 000°23'0 0.0
2016-Aug-21 03:31N 53°44' E 000°23'0 0.2
2016-Aug-21 02:13N 53°44' E 000°23'0 0.1
2016-Aug-21 01:34N 53°44' E 000°23'0 0.0
2016-Aug-21 00:12N 53°44' E 000°23'0 0.0
2016-Aug-20 23:24N 53°44' E 000°23'0 0.0
2016-Aug-20 22:29N 53°44' E 000°23'0 0.0
2016-Aug-20 21:23N 53°44' E 000°23'0 0.0
2016-Aug-20 20:31N 53°44' E 000°23'0 0.3
2016-Aug-20 19:28N 53°44' E 000°23'0 0.0
2016-Aug-20 17:24N 53°44' E 000°23'0 0.0
2016-Aug-20 16:24N 53°44' E 000°23'0 0.0
2016-Aug-20 15:32N 53°44' E 000°23'0 0.2
2016-Aug-20 14:08N 53°44' E 000°23'0 0.0
2016-Aug-20 13:31N 53°44' E 000°23'0 0.0
2016-Aug-20 12:25N 53°44' E 000°23'0 0.0
2016-Aug-20 11:31N 53°44' E 000°23'0 0.0
2016-Aug-20 10:24N 53°44' E 000°23'0 0.0
2016-Aug-20 09:18N 53°44' E 000°23'0 0.0
2016-Aug-20 08:32N 53°44' E 000°23'0 0.1
2016-Aug-20 06:28N 53°44' E 000°23'0 0.0
2016-Aug-20 05:25N 53°44' E 000°23'0 0.0
2016-Aug-20 04:33N 53°44' E 000°23'0 0.0
2016-Aug-20 03:30N 53°44' E 000°23'0 0.2
2016-Aug-20 01:29N 53°44' E 000°23'0 0.0
2016-Aug-20 00:08N 53°44' E 000°23'0 0.0
2016-Aug-19 23:28N 53°44' E 000°23'0 0.1
2016-Aug-19 22:28N 53°44' E 000°24'0 0.0
2016-Aug-19 21:33N 53°44' E 000°24'0 0.0
2016-Aug-19 20:24N 53°44' E 000°24'0 0.2
2016-Aug-19 19:17N 53°44' E 000°24'0 0.0
2016-Aug-19 18:32N 53°44' E 000°24'0 0.0
2016-Aug-19 17:20N 53°44' E 000°24'0 0.0
2016-Aug-19 16:16N 53°44' E 000°24'0 0.0
2016-Aug-19 14:30N 53°44' E 000°24'0 0.2
2016-Aug-19 13:27N 53°44' E 000°23'0 0.1
2016-Aug-19 12:33N 53°44' E 000°23'0 0.0
2016-Aug-19 11:26N 53°44' E 000°24'0 0.0
2016-Aug-19 10:17N 53°44' E 000°24'0 0.0
2016-Aug-19 09:31N 53°44' E 000°24'0 0.0
2016-Aug-19 08:25N 53°44' E 000°24'0 0.2
2016-Aug-19 07:33N 53°44' E 000°23'0 0.2
2016-Aug-19 06:27N 53°44' E 000°24'0 0.0
2016-Aug-19 04:29N 53°44' E 000°24'0 0.0
2016-Aug-19 02:22N 53°44' E 000°24'0 0.1
2016-Aug-19 01:25N 53°44' E 000°23'0 0.2
2016-Aug-19 00:33N 53°44' E 000°23'0 0.0
2016-Aug-18 23:27N 53°44' E 000°24'0 0.0
2016-Aug-18 21:14N 53°44' E 000°24'0 0.0
2016-Aug-18 20:17N 53°44' E 000°24'0 0.1
2016-Aug-18 18:25N 53°44' E 000°24'0 0.0
2016-Aug-18 16:15N 53°44' E 000°24'0 0.0
2016-Aug-18 13:20N 53°44' E 000°23'0 0.2
2016-Aug-18 12:31N 53°44' E 000°23'0 0.1
2016-Aug-18 11:19N 53°44' E 000°24'0 0.0
2016-Aug-18 10:30N 53°44' E 000°24'0 0.0
2016-Aug-18 09:24N 53°44' E 000°24'0 0.0
2016-Aug-18 08:17N 53°44' E 000°24'0 0.0
2016-Aug-18 07:29N 53°44' E 000°24'0 0.1
2016-Aug-18 06:16N 53°44' E 000°24'0 0.0
2016-Aug-18 04:13N 53°44' E 000°24'0 0.0
2016-Aug-18 03:12N 53°44' E 000°24'0 0.0
2016-Aug-18 02:33N 53°44' E 000°24'0 0.0
2016-Aug-18 01:29N 53°44' E 000°24'0 0.2
2016-Aug-18 00:32N 53°44' E 000°23'0 0.1
2016-Aug-17 23:32N 53°44' E 000°23'  

Dump ship's entire track history